YBTL Airport Information

Runway Information
Runway 01 Length 7999 ft width 148 ft
Elevation 18 ft Threshold 0 ft Heading 24
Runway 19 Length 7999 ft Width 148 ft
Elevation 13 ft Threshold 0 ft Heading 204
Runway 07 Length 3609 ft width 98 ft
Elevation 12 ft Threshold 0 ft Heading 74
Runway 25 Length 3609 ft Width 98 ft
Elevation 14 ft Threshold 0 ft Heading 254
Airport Frequencies
Type A/D Name APP/DEP Frequency 126.8 MHZ
Type ATIS Name ATIS Frequency 133.5 MHZ
Type CLD Name CLNC DEL Frequency 128.1 MHZ
Type CTAF Name CTAF Frequency 118.3 MHZ
Type FSS Name BRISBANE C Frequency 120.55 MHZ
Type GND Name GND Frequency 121.8 MHZ
Type OPS Name RAAF AIR O Frequency 897.4 MHZ
Type TWR Name TWR Frequency 118.3 MHZ
Airport Navaids
Type VOR-DME Name Townsville Frequency 114100 KHZ
Type TACAN Name Townsville Frequency 113500 KHZ
Type NDB Name Townsville Frequency 276 KHZ
Airport Weather Information & NOTAM
ADDS - METARS form results

(0545 UTC 07 March 2021)
Data provider http://aviationweather.gov/metar/data/
 
METAR text: YBTL 070530Z AUTO 05015KT 9999 // SCT040 29/24 Q1009
Conditions at: YBTL (TOWNSVILLE(CIV/M, AU) observed 0530 UTC 07 March 2021
Temperature: 29.0°C (84°F)
Dewpoint: 24.0°C (75°F) [RH = 74%]
Pressure (altimeter): 29.79 inches Hg (1009.0 mb)
Winds: from the NE (50 degrees) at 17 MPH (15 knots; 7.7 m/s)
Visibility: 6 or more miles (10+ km)
Ceiling: at least 12,000 feet AGL
Clouds: scattered clouds at 4000 feet AGL
Weather: no significant weather observed at this time

METAR text: YBTL 070500Z AUTO 05015KT 9999 // SCT036 29/24 Q1009
Conditions at: YBTL (TOWNSVILLE(CIV/M, AU) observed 0500 UTC 07 March 2021
Temperature: 29.0°C (84°F)
Dewpoint: 24.0°C (75°F) [RH = 74%]
Pressure (altimeter): 29.79 inches Hg (1009.0 mb)
Winds: from the NE (50 degrees) at 17 MPH (15 knots; 7.7 m/s)
Visibility: 6 or more miles (10+ km)
Ceiling: at least 12,000 feet AGL
Clouds: scattered clouds at 3600 feet AGL
Weather: no significant weather observed at this time

Forecast for: AMD
Text: TAF AMD YBTL 070520Z 0705/0806 05014KT 9999 SCT030
Forecast period: 0500 to 1200 UTC 07 March 2021
Forecast type: FROM: standard forecast or significant change
Winds: from the NE (50 degrees) at 16 MPH (14 knots; 7.2 m/s)
Visibility: 6 or more miles (10+ km)
Ceiling: at least 12,000 feet AGL
Clouds: scattered clouds at 3000 feet AGL
Weather: no significant weather forecast for this period
Text: FM071200 06010KT 9999 SCT025
Forecast period: 1200 UTC 07 March 2021 to 0600 UTC 08 March 2021
Forecast type: FROM: standard forecast or significant change
Winds: from the ENE (60 degrees) at 12 MPH (10 knots; 5.1 m/s)
Visibility: 6 or more miles (10+ km)
Ceiling: at least 12,000 feet AGL
Clouds: scattered clouds at 2500 feet AGL
Weather: no significant weather forecast for this period